sensor_id;sensor_type;location;lat;lon;timestamp;P1;durP1;ratioP1;P2;durP2;ratioP2
63688;SDS011;54895;40.928;14.480;2024-01-10T00:00:00;11.32;;;5.82;;
63688;SDS011;54895;40.928;14.480;2024-01-10T00:02:30;12.10;;;6.60;;
63688;SDS011;54895;40.928;14.480;2024-01-10T00:04:57;10.57;;;6.40;;
63688;SDS011;54895;40.928;14.480;2024-01-10T00:07:25;12.05;;;7.50;;
63688;SDS011;54895;40.928;14.480;2024-01-10T00:09:52;13.57;;;7.80;;
63688;SDS011;54895;40.928;14.480;2024-01-10T00:12:19;10.40;;;6.15;;
63688;SDS011;54895;40.928;14.480;2024-01-10T00:14:46;7.35;;;5.07;;
63688;SDS011;54895;40.928;14.480;2024-01-10T00:17:13;9.52;;;5.80;;
63688;SDS011;54895;40.928;14.480;2024-01-10T00:19:40;6.68;;;4.43;;
63688;SDS011;54895;40.928;14.480;2024-01-10T00:22:07;8.93;;;5.10;;
63688;SDS011;54895;40.928;14.480;2024-01-10T00:24:34;6.95;;;4.40;;
63688;SDS011;54895;40.928;14.480;2024-01-10T00:27:01;9.20;;;4.88;;
63688;SDS011;54895;40.928;14.480;2024-01-10T00:29:29;5.35;;;3.53;;
63688;SDS011;54895;40.928;14.480;2024-01-10T00:31:56;7.00;;;4.55;;
63688;SDS011;54895;40.928;14.480;2024-01-10T00:34:25;6.00;;;3.92;;
63688;SDS011;54895;40.928;14.480;2024-01-10T00:36:53;5.90;;;4.00;;
63688;SDS011;54895;40.928;14.480;2024-01-10T00:39:20;4.38;;;3.10;;
63688;SDS011;54895;40.928;14.480;2024-01-10T00:41:47;4.53;;;3.00;;
63688;SDS011;54895;40.928;14.480;2024-01-10T00:44:15;6.63;;;3.17;;
63688;SDS011;54895;40.928;14.480;2024-01-10T00:50:29;5.78;;;3.70;;
63688;SDS011;54895;40.928;14.480;2024-01-10T00:52:55;5.13;;;3.33;;
63688;SDS011;54895;40.928;14.480;2024-01-10T00:55:22;6.40;;;3.65;;
63688;SDS011;54895;40.928;14.480;2024-01-10T00:57:48;8.20;;;4.30;;
63688;SDS011;54895;40.928;14.480;2024-01-10T01:00:14;8.40;;;4.65;;
63688;SDS011;54895;40.928;14.480;2024-01-10T01:02:41;6.38;;;4.30;;
63688;SDS011;54895;40.928;14.480;2024-01-10T01:05:07;10.40;;;4.35;;
63688;SDS011;54895;40.928;14.480;2024-01-10T01:07:34;10.65;;;4.30;;
63688;SDS011;54895;40.928;14.480;2024-01-10T01:10:00;8.00;;;4.13;;
63688;SDS011;54895;40.928;14.480;2024-01-10T01:12:27;5.63;;;3.42;;
63688;SDS011;54895;40.928;14.480;2024-01-10T01:14:54;8.18;;;3.53;;
63688;SDS011;54895;40.928;14.480;2024-01-10T01:17:20;6.43;;;3.78;;
63688;SDS011;54895;40.928;14.480;2024-01-10T01:19:46;8.88;;;4.07;;
63688;SDS011;54895;40.928;14.480;2024-01-10T01:22:12;9.55;;;4.70;;
63688;SDS011;54895;40.928;14.480;2024-01-10T01:24:39;7.57;;;4.18;;
63688;SDS011;54895;40.928;14.480;2024-01-10T01:27:05;6.85;;;3.70;;
63688;SDS011;54895;40.928;14.480;2024-01-10T01:29:31;7.13;;;3.95;;
63688;SDS011;54895;40.928;14.480;2024-01-10T01:31:58;9.07;;;4.57;;
63688;SDS011;54895;40.928;14.480;2024-01-10T01:34:24;7.05;;;4.13;;
63688;SDS011;54895;40.928;14.480;2024-01-10T01:36:50;7.22;;;4.13;;
63688;SDS011;54895;40.928;14.480;2024-01-10T01:39:18;9.18;;;4.47;;
63688;SDS011;54895;40.928;14.480;2024-01-10T01:41:44;7.05;;;4.60;;
63688;SDS011;54895;40.928;14.480;2024-01-10T01:44:11;10.23;;;4.68;;
63688;SDS011;54895;40.928;14.480;2024-01-10T01:50:21;6.55;;;3.10;;
63688;SDS011;54895;40.928;14.480;2024-01-10T01:52:48;5.07;;;2.80;;
63688;SDS011;54895;40.928;14.480;2024-01-10T01:55:16;4.20;;;2.58;;
63688;SDS011;54895;40.928;14.480;2024-01-10T01:57:43;6.15;;;3.97;;
63688;SDS011;54895;40.928;14.480;2024-01-10T02:00:09;5.40;;;3.80;;
63688;SDS011;54895;40.928;14.480;2024-01-10T02:02:37;4.82;;;3.47;;
63688;SDS011;54895;40.928;14.480;2024-01-10T02:05:05;6.50;;;3.72;;
63688;SDS011;54895;40.928;14.480;2024-01-10T02:07:31;5.97;;;2.90;;
63688;SDS011;54895;40.928;14.480;2024-01-10T02:09:58;5.32;;;2.70;;
63688;SDS011;54895;40.928;14.480;2024-01-10T02:12:25;4.47;;;3.22;;
63688;SDS011;54895;40.928;14.480;2024-01-10T02:14:52;5.90;;;3.58;;
63688;SDS011;54895;40.928;14.480;2024-01-10T02:17:18;4.72;;;2.75;;
63688;SDS011;54895;40.928;14.480;2024-01-10T02:19:45;8.25;;;3.00;;
63688;SDS011;54895;40.928;14.480;2024-01-10T02:22:12;3.70;;;2.75;;
63688;SDS011;54895;40.928;14.480;2024-01-10T02:24:39;3.85;;;2.67;;
63688;SDS011;54895;40.928;14.480;2024-01-10T02:27:05;5.50;;;2.90;;
63688;SDS011;54895;40.928;14.480;2024-01-10T02:29:33;5.18;;;2.97;;
63688;SDS011;54895;40.928;14.480;2024-01-10T02:32:00;3.42;;;2.45;;
63688;SDS011;54895;40.928;14.480;2024-01-10T02:34:27;4.18;;;2.50;;
63688;SDS011;54895;40.928;14.480;2024-01-10T02:36:55;4.28;;;2.28;;
63688;SDS011;54895;40.928;14.480;2024-01-10T02:39:23;6.75;;;2.65;;
63688;SDS011;54895;40.928;14.480;2024-01-10T02:41:49;6.00;;;2.90;;
63688;SDS011;54895;40.928;14.480;2024-01-10T02:44:16;3.17;;;2.13;;
63688;SDS011;54895;40.928;14.480;2024-01-10T02:50:23;4.55;;;2.83;;
63688;SDS011;54895;40.928;14.480;2024-01-10T02:52:49;3.58;;;2.40;;
63688;SDS011;54895;40.928;14.480;2024-01-10T02:55:16;4.88;;;2.72;;
63688;SDS011;54895;40.928;14.480;2024-01-10T02:57:42;8.10;;;2.67;;
63688;SDS011;54895;40.928;14.480;2024-01-10T03:00:09;4.95;;;2.80;;
63688;SDS011;54895;40.928;14.480;2024-01-10T03:02:35;5.50;;;3.05;;
63688;SDS011;54895;40.928;14.480;2024-01-10T03:05:02;6.90;;;2.83;;
63688;SDS011;54895;40.928;14.480;2024-01-10T03:07:28;3.97;;;2.75;;
63688;SDS011;54895;40.928;14.480;2024-01-10T03:09:54;5.25;;;2.92;;
63688;SDS011;54895;40.928;14.480;2024-01-10T03:12:21;3.63;;;2.33;;
63688;SDS011;54895;40.928;14.480;2024-01-10T03:14:47;4.43;;;2.47;;
63688;SDS011;54895;40.928;14.480;2024-01-10T03:17:13;4.68;;;2.50;;
63688;SDS011;54895;40.928;14.480;2024-01-10T03:19:40;5.22;;;2.40;;
63688;SDS011;54895;40.928;14.480;2024-01-10T03:22:09;5.40;;;2.17;;
63688;SDS011;54895;40.928;14.480;2024-01-10T03:24:39;3.38;;;2.17;;
63688;SDS011;54895;40.928;14.480;2024-01-10T03:27:05;3.80;;;2.88;;
63688;SDS011;54895;40.928;14.480;2024-01-10T03:29:32;4.25;;;2.28;;
63688;SDS011;54895;40.928;14.480;2024-01-10T03:31:58;5.00;;;2.22;;
63688;SDS011;54895;40.928;14.480;2024-01-10T03:34:25;3.75;;;2.35;;
63688;SDS011;54895;40.928;14.480;2024-01-10T03:36:51;3.00;;;2.20;;
63688;SDS011;54895;40.928;14.480;2024-01-10T03:39:17;4.80;;;2.47;;
63688;SDS011;54895;40.928;14.480;2024-01-10T03:41:43;3.90;;;2.35;;
63688;SDS011;54895;40.928;14.480;2024-01-10T03:44:10;2.92;;;2.00;;
63688;SDS011;54895;40.928;14.480;2024-01-10T03:50:34;3.90;;;2.10;;
63688;SDS011;54895;40.928;14.480;2024-01-10T03:53:01;5.05;;;2.08;;
63688;SDS011;54895;40.928;14.480;2024-01-10T03:55:28;3.28;;;1.80;;
63688;SDS011;54895;40.928;14.480;2024-01-10T03:57:56;4.05;;;2.03;;
63688;SDS011;54895;40.928;14.480;2024-01-10T04:00:22;3.58;;;2.00;;
63688;SDS011;54895;40.928;14.480;2024-01-10T04:02:51;2.83;;;1.75;;
63688;SDS011;54895;40.928;14.480;2024-01-10T04:05:17;3.78;;;1.80;;
63688;SDS011;54895;40.928;14.480;2024-01-10T04:07:45;5.55;;;2.10;;
63688;SDS011;54895;40.928;14.480;2024-01-10T04:10:12;5.05;;;2.20;;
63688;SDS011;54895;40.928;14.480;2024-01-10T04:12:43;5.00;;;2.42;;
63688;SDS011;54895;40.928;14.480;2024-01-10T04:15:10;4.18;;;2.10;;
63688;SDS011;54895;40.928;14.480;2024-01-10T04:17:38;3.55;;;2.25;;
63688;SDS011;54895;40.928;14.480;2024-01-10T04:20:04;4.25;;;2.30;;
63688;SDS011;54895;40.928;14.480;2024-01-10T04:22:32;5.65;;;2.30;;
63688;SDS011;54895;40.928;14.480;2024-01-10T04:24:59;5.35;;;1.92;;
63688;SDS011;54895;40.928;14.480;2024-01-10T04:27:27;3.58;;;2.38;;
63688;SDS011;54895;40.928;14.480;2024-01-10T04:29:53;4.25;;;2.30;;
63688;SDS011;54895;40.928;14.480;2024-01-10T04:32:20;4.22;;;2.22;;
63688;SDS011;54895;40.928;14.480;2024-01-10T04:34:47;2.85;;;1.75;;
63688;SDS011;54895;40.928;14.480;2024-01-10T04:37:14;3.25;;;2.20;;
63688;SDS011;54895;40.928;14.480;2024-01-10T04:39:40;4.82;;;2.22;;
63688;SDS011;54895;40.928;14.480;2024-01-10T04:42:10;3.58;;;2.03;;
63688;SDS011;54895;40.928;14.480;2024-01-10T04:44:37;3.65;;;2.00;;
63688;SDS011;54895;40.928;14.480;2024-01-10T04:50:36;2.90;;;1.95;;
63688;SDS011;54895;40.928;14.480;2024-01-10T04:53:03;4.53;;;2.13;;
63688;SDS011;54895;40.928;14.480;2024-01-10T04:55:30;3.08;;;1.90;;
63688;SDS011;54895;40.928;14.480;2024-01-10T04:57:56;5.40;;;2.00;;
63688;SDS011;54895;40.928;14.480;2024-01-10T05:00:23;4.82;;;2.05;;
63688;SDS011;54895;40.928;14.480;2024-01-10T05:02:49;4.07;;;1.98;;
63688;SDS011;54895;40.928;14.480;2024-01-10T05:05:16;3.72;;;1.98;;
63688;SDS011;54895;40.928;14.480;2024-01-10T05:07:44;3.70;;;2.17;;
63688;SDS011;54895;40.928;14.480;2024-01-10T05:10:10;3.17;;;2.05;;
63688;SDS011;54895;40.928;14.480;2024-01-10T05:12:36;4.93;;;2.15;;
63688;SDS011;54895;40.928;14.480;2024-01-10T05:15:03;6.78;;;2.25;;
63688;SDS011;54895;40.928;14.480;2024-01-10T05:17:30;6.50;;;2.53;;
63688;SDS011;54895;40.928;14.480;2024-01-10T05:19:57;4.20;;;2.10;;
63688;SDS011;54895;40.928;14.480;2024-01-10T05:22:23;2.83;;;1.98;;
63688;SDS011;54895;40.928;14.480;2024-01-10T05:24:49;5.22;;;2.30;;
63688;SDS011;54895;40.928;14.480;2024-01-10T05:27:16;4.45;;;1.88;;
63688;SDS011;54895;40.928;14.480;2024-01-10T05:29:42;4.43;;;2.10;;
63688;SDS011;54895;40.928;14.480;2024-01-10T05:32:09;2.90;;;2.03;;
63688;SDS011;54895;40.928;14.480;2024-01-10T05:34:35;3.00;;;2.00;;
63688;SDS011;54895;40.928;14.480;2024-01-10T05:37:02;4.65;;;2.28;;
63688;SDS011;54895;40.928;14.480;2024-01-10T05:39:28;4.95;;;2.35;;
63688;SDS011;54895;40.928;14.480;2024-01-10T05:41:54;3.78;;;2.47;;
63688;SDS011;54895;40.928;14.480;2024-01-10T05:44:21;3.83;;;2.40;;
63688;SDS011;54895;40.928;14.480;2024-01-10T05:50:33;7.15;;;2.30;;
63688;SDS011;54895;40.928;14.480;2024-01-10T05:53:00;5.65;;;2.00;;
63688;SDS011;54895;40.928;14.480;2024-01-10T05:55:26;3.67;;;2.20;;
63688;SDS011;54895;40.928;14.480;2024-01-10T05:57:53;3.00;;;2.10;;
63688;SDS011;54895;40.928;14.480;2024-01-10T06:00:20;4.75;;;2.40;;
63688;SDS011;54895;40.928;14.480;2024-01-10T06:02:47;4.45;;;2.13;;
63688;SDS011;54895;40.928;14.480;2024-01-10T06:05:13;4.55;;;2.22;;
63688;SDS011;54895;40.928;14.480;2024-01-10T06:07:40;2.78;;;1.80;;
63688;SDS011;54895;40.928;14.480;2024-01-10T06:10:10;4.05;;;2.15;;
63688;SDS011;54895;40.928;14.480;2024-01-10T06:12:36;4.82;;;2.17;;
63688;SDS011;54895;40.928;14.480;2024-01-10T06:15:04;5.97;;;2.70;;
63688;SDS011;54895;40.928;14.480;2024-01-10T06:17:32;4.68;;;2.28;;
63688;SDS011;54895;40.928;14.480;2024-01-10T06:19:59;4.22;;;2.20;;
63688;SDS011;54895;40.928;14.480;2024-01-10T06:22:26;4.05;;;2.35;;
63688;SDS011;54895;40.928;14.480;2024-01-10T06:24:53;4.13;;;2.00;;
63688;SDS011;54895;40.928;14.480;2024-01-10T06:27:19;6.05;;;2.70;;
63688;SDS011;54895;40.928;14.480;2024-01-10T06:29:46;6.25;;;2.50;;
63688;SDS011;54895;40.928;14.480;2024-01-10T06:32:13;9.60;;;2.90;;
63688;SDS011;54895;40.928;14.480;2024-01-10T06:34:40;5.15;;;2.42;;
63688;SDS011;54895;40.928;14.480;2024-01-10T06:37:07;6.07;;;2.20;;
63688;SDS011;54895;40.928;14.480;2024-01-10T06:39:36;7.22;;;3.30;;
63688;SDS011;54895;40.928;14.480;2024-01-10T06:42:03;5.57;;;2.92;;
63688;SDS011;54895;40.928;14.480;2024-01-10T06:44:31;6.97;;;2.90;;
63688;SDS011;54895;40.928;14.480;2024-01-10T06:50:52;6.65;;;2.88;;
63688;SDS011;54895;40.928;14.480;2024-01-10T06:53:18;9.23;;;2.97;;
63688;SDS011;54895;40.928;14.480;2024-01-10T06:55:45;8.90;;;3.00;;
63688;SDS011;54895;40.928;14.480;2024-01-10T06:58:11;9.48;;;2.70;;
63688;SDS011;54895;40.928;14.480;2024-01-10T07:00:37;10.27;;;3.30;;
63688;SDS011;54895;40.928;14.480;2024-01-10T07:03:04;7.00;;;3.17;;
63688;SDS011;54895;40.928;14.480;2024-01-10T07:05:31;9.90;;;3.20;;
63688;SDS011;54895;40.928;14.480;2024-01-10T07:07:58;17.05;;;3.72;;
63688;SDS011;54895;40.928;14.480;2024-01-10T07:10:24;9.43;;;3.05;;
63688;SDS011;54895;40.928;14.480;2024-01-10T07:12:54;8.73;;;2.75;;
63688;SDS011;54895;40.928;14.480;2024-01-10T07:15:21;7.32;;;3.47;;
63688;SDS011;54895;40.928;14.480;2024-01-10T07:17:48;7.88;;;3.20;;
63688;SDS011;54895;40.928;14.480;2024-01-10T07:20:15;9.75;;;2.85;;
63688;SDS011;54895;40.928;14.480;2024-01-10T07:22:41;4.75;;;2.80;;
63688;SDS011;54895;40.928;14.480;2024-01-10T07:25:10;7.25;;;2.70;;
63688;SDS011;54895;40.928;14.480;2024-01-10T07:27:40;5.82;;;3.05;;
63688;SDS011;54895;40.928;14.480;2024-01-10T07:30:07;8.90;;;3.85;;
63688;SDS011;54895;40.928;14.480;2024-01-10T07:32:40;6.82;;;2.67;;
63688;SDS011;54895;40.928;14.480;2024-01-10T07:35:07;5.43;;;2.78;;
63688;SDS011;54895;40.928;14.480;2024-01-10T07:37:40;7.63;;;3.33;;
63688;SDS011;54895;40.928;14.480;2024-01-10T07:40:08;8.35;;;3.67;;
63688;SDS011;54895;40.928;14.480;2024-01-10T07:42:37;8.73;;;3.22;;
63688;SDS011;54895;40.928;14.480;2024-01-10T07:45:03;4.10;;;2.72;;
63688;SDS011;54895;40.928;14.480;2024-01-10T07:51:04;7.40;;;3.08;;
63688;SDS011;54895;40.928;14.480;2024-01-10T07:53:31;6.75;;;2.80;;
63688;SDS011;54895;40.928;14.480;2024-01-10T07:55:58;4.88;;;2.70;;
63688;SDS011;54895;40.928;14.480;2024-01-10T07:58:25;3.85;;;2.05;;
63688;SDS011;54895;40.928;14.480;2024-01-10T08:00:53;8.27;;;2.75;;
63688;SDS011;54895;40.928;14.480;2024-01-10T08:03:20;4.53;;;2.33;;
63688;SDS011;54895;40.928;14.480;2024-01-10T08:05:47;5.00;;;2.80;;
63688;SDS011;54895;40.928;14.480;2024-01-10T08:08:14;8.05;;;2.85;;
63688;SDS011;54895;40.928;14.480;2024-01-10T08:10:43;6.25;;;3.20;;
63688;SDS011;54895;40.928;14.480;2024-01-10T08:13:10;6.55;;;2.92;;
63688;SDS011;54895;40.928;14.480;2024-01-10T08:15:37;7.47;;;3.30;;
63688;SDS011;54895;40.928;14.480;2024-01-10T08:18:04;9.90;;;3.40;;
63688;SDS011;54895;40.928;14.480;2024-01-10T08:20:31;5.30;;;2.47;;
63688;SDS011;54895;40.928;14.480;2024-01-10T08:22:57;6.28;;;3.10;;
63688;SDS011;54895;40.928;14.480;2024-01-10T08:25:24;7.60;;;3.65;;
63688;SDS011;54895;40.928;14.480;2024-01-10T08:27:50;7.93;;;4.13;;
63688;SDS011;54895;40.928;14.480;2024-01-10T08:30:19;7.80;;;4.05;;
63688;SDS011;54895;40.928;14.480;2024-01-10T08:32:47;8.07;;;4.00;;
63688;SDS011;54895;40.928;14.480;2024-01-10T08:35:14;7.20;;;3.78;;
63688;SDS011;54895;40.928;14.480;2024-01-10T08:37:40;10.65;;;4.05;;
63688;SDS011;54895;40.928;14.480;2024-01-10T08:40:09;7.80;;;3.47;;
63688;SDS011;54895;40.928;14.480;2024-01-10T08:42:38;7.50;;;2.85;;
63688;SDS011;54895;40.928;14.480;2024-01-10T08:45:04;5.88;;;3.20;;
63688;SDS011;54895;40.928;14.480;2024-01-10T08:51:22;11.38;;;4.57;;
63688;SDS011;54895;40.928;14.480;2024-01-10T08:54:20;6.05;;;3.15;;
63688;SDS011;54895;40.928;14.480;2024-01-10T08:56:48;8.02;;;4.20;;
63688;SDS011;54895;40.928;14.480;2024-01-10T08:59:14;6.65;;;3.50;;
63688;SDS011;54895;40.928;14.480;2024-01-10T09:01:41;5.78;;;2.65;;
63688;SDS011;54895;40.928;14.480;2024-01-10T09:04:07;7.22;;;2.67;;
63688;SDS011;54895;40.928;14.480;2024-01-10T09:06:34;4.03;;;2.05;;
63688;SDS011;54895;40.928;14.480;2024-01-10T09:09:03;5.38;;;2.22;;
63688;SDS011;54895;40.928;14.480;2024-01-10T09:11:29;4.63;;;2.38;;
63688;SDS011;54895;40.928;14.480;2024-01-10T09:13:55;3.28;;;1.90;;
63688;SDS011;54895;40.928;14.480;2024-01-10T09:16:22;4.95;;;2.78;;
63688;SDS011;54895;40.928;14.480;2024-01-10T09:18:48;4.55;;;2.70;;
63688;SDS011;54895;40.928;14.480;2024-01-10T09:21:18;5.68;;;2.97;;
63688;SDS011;54895;40.928;14.480;2024-01-10T09:23:45;3.30;;;2.10;;
63688;SDS011;54895;40.928;14.480;2024-01-10T09:26:13;3.25;;;2.28;;
63688;SDS011;54895;40.928;14.480;2024-01-10T09:28:39;2.72;;;2.10;;
63688;SDS011;54895;40.928;14.480;2024-01-10T09:31:06;2.60;;;1.52;;
63688;SDS011;54895;40.928;14.480;2024-01-10T09:33:33;3.25;;;1.65;;
63688;SDS011;54895;40.928;14.480;2024-01-10T09:35:59;4.57;;;2.10;;
63688;SDS011;54895;40.928;14.480;2024-01-10T09:38:26;3.95;;;2.25;;
63688;SDS011;54895;40.928;14.480;2024-01-10T09:40:53;3.80;;;2.20;;
63688;SDS011;54895;40.928;14.480;2024-01-10T09:43:27;6.63;;;2.30;;
63688;SDS011;54895;40.928;14.480;2024-01-10T09:45:55;6.35;;;2.78;;
63688;SDS011;54895;40.928;14.480;2024-01-10T09:51:19;4.47;;;2.03;;
63688;SDS011;54895;40.928;14.480;2024-01-10T09:53:46;3.38;;;2.03;;
63688;SDS011;54895;40.928;14.480;2024-01-10T09:56:17;2.95;;;1.95;;
63688;SDS011;54895;40.928;14.480;2024-01-10T09:58:44;4.25;;;2.10;;
63688;SDS011;54895;40.928;14.480;2024-01-10T10:01:11;3.25;;;2.17;;
63688;SDS011;54895;40.928;14.480;2024-01-10T10:03:39;4.40;;;2.20;;
63688;SDS011;54895;40.928;14.480;2024-01-10T10:06:07;4.90;;;2.08;;
63688;SDS011;54895;40.928;14.480;2024-01-10T10:08:34;3.30;;;2.00;;
63688;SDS011;54895;40.928;14.480;2024-01-10T10:11:00;2.65;;;1.77;;
63688;SDS011;54895;40.928;14.480;2024-01-10T10:13:27;3.60;;;2.00;;
63688;SDS011;54895;40.928;14.480;2024-01-10T10:16:01;4.03;;;2.10;;
63688;SDS011;54895;40.928;14.480;2024-01-10T10:18:29;5.95;;;2.78;;
63688;SDS011;54895;40.928;14.480;2024-01-10T10:21:10;4.28;;;2.28;;
63688;SDS011;54895;40.928;14.480;2024-01-10T10:23:38;2.92;;;2.20;;
63688;SDS011;54895;40.928;14.480;2024-01-10T10:26:09;4.00;;;2.40;;
63688;SDS011;54895;40.928;14.480;2024-01-10T10:28:36;4.40;;;2.38;;
63688;SDS011;54895;40.928;14.480;2024-01-10T10:31:03;5.30;;;2.47;;
63688;SDS011;54895;40.928;14.480;2024-01-10T10:33:31;4.93;;;2.13;;
63688;SDS011;54895;40.928;14.480;2024-01-10T10:35:58;5.18;;;1.70;;
63688;SDS011;54895;40.928;14.480;2024-01-10T10:38:25;5.22;;;2.58;;
63688;SDS011;54895;40.928;14.480;2024-01-10T10:40:51;4.45;;;2.33;;
63688;SDS011;54895;40.928;14.480;2024-01-10T10:43:18;7.28;;;2.67;;
63688;SDS011;54895;40.928;14.480;2024-01-10T10:45:48;2.90;;;2.13;;
63688;SDS011;54895;40.928;14.480;2024-01-10T10:51:42;5.55;;;2.17;;
63688;SDS011;54895;40.928;14.480;2024-01-10T10:54:09;3.65;;;2.20;;
63688;SDS011;54895;40.928;14.480;2024-01-10T10:56:35;4.72;;;2.25;;
63688;SDS011;54895;40.928;14.480;2024-01-10T10:59:04;5.15;;;2.80;;
63688;SDS011;54895;40.928;14.480;2024-01-10T11:01:31;3.90;;;2.40;;
63688;SDS011;54895;40.928;14.480;2024-01-10T11:03:58;4.68;;;2.63;;
63688;SDS011;54895;40.928;14.480;2024-01-10T11:06:25;6.68;;;2.80;;
63688;SDS011;54895;40.928;14.480;2024-01-10T11:08:59;4.30;;;2.30;;
63688;SDS011;54895;40.928;14.480;2024-01-10T11:14:31;3.35;;;2.20;;
63688;SDS011;54895;40.928;14.480;2024-01-10T11:20:27;5.22;;;2.33;;
63688;SDS011;54895;40.928;14.480;2024-01-10T11:23:10;7.72;;;2.40;;
63688;SDS011;54895;40.928;14.480;2024-01-10T11:25:51;4.18;;;2.53;;
63688;SDS011;54895;40.928;14.480;2024-01-10T11:28:18;3.97;;;2.25;;
63688;SDS011;54895;40.928;14.480;2024-01-10T11:30:48;4.25;;;1.95;;
63688;SDS011;54895;40.928;14.480;2024-01-10T11:41:24;4.45;;;2.20;;
63688;SDS011;54895;40.928;14.480;2024-01-10T11:46:53;5.10;;;2.95;;
63688;SDS011;54895;40.928;14.480;2024-01-10T11:49:21;2.13;;;1.33;;
63688;SDS011;54895;40.928;14.480;2024-01-10T11:51:49;5.88;;;2.08;;
63688;SDS011;54895;40.928;14.480;2024-01-10T11:54:36;5.45;;;2.50;;
63688;SDS011;54895;40.928;14.480;2024-01-10T11:59:51;4.25;;;2.38;;
63688;SDS011;54895;40.928;14.480;2024-01-10T12:02:19;3.60;;;2.05;;
63688;SDS011;54895;40.928;14.480;2024-01-10T12:04:47;5.60;;;2.42;;
63688;SDS011;54895;40.928;14.480;2024-01-10T12:07:14;4.53;;;2.28;;
63688;SDS011;54895;40.928;14.480;2024-01-10T12:09:42;3.70;;;2.15;;
63688;SDS011;54895;40.928;14.480;2024-01-10T12:12:09;7.28;;;2.78;;
63688;SDS011;54895;40.928;14.480;2024-01-10T12:14:37;4.82;;;2.33;;
63688;SDS011;54895;40.928;14.480;2024-01-10T12:17:03;5.75;;;2.03;;
63688;SDS011;54895;40.928;14.480;2024-01-10T12:19:32;5.22;;;2.45;;
63688;SDS011;54895;40.928;14.480;2024-01-10T12:22:00;3.58;;;2.00;;
63688;SDS011;54895;40.928;14.480;2024-01-10T12:24:27;9.20;;;2.58;;
63688;SDS011;54895;40.928;14.480;2024-01-10T12:26:57;3.08;;;2.30;;
63688;SDS011;54895;40.928;14.480;2024-01-10T12:29:23;6.03;;;2.00;;
63688;SDS011;54895;40.928;14.480;2024-01-10T12:31:51;3.15;;;2.00;;
63688;SDS011;54895;40.928;14.480;2024-01-10T12:34:18;3.10;;;2.08;;
63688;SDS011;54895;40.928;14.480;2024-01-10T12:36:44;4.93;;;2.10;;
63688;SDS011;54895;40.928;14.480;2024-01-10T12:39:12;4.03;;;2.13;;
63688;SDS011;54895;40.928;14.480;2024-01-10T12:41:40;2.00;;;1.48;;
63688;SDS011;54895;40.928;14.480;2024-01-10T12:44:07;3.55;;;1.88;;
63688;SDS011;54895;40.928;14.480;2024-01-10T12:46:33;3.17;;;2.10;;
63688;SDS011;54895;40.928;14.480;2024-01-10T12:51:52;4.55;;;2.72;;
63688;SDS011;54895;40.928;14.480;2024-01-10T12:54:19;4.03;;;2.53;;
63688;SDS011;54895;40.928;14.480;2024-01-10T12:56:45;3.83;;;2.53;;
63688;SDS011;54895;40.928;14.480;2024-01-10T12:59:11;5.95;;;2.50;;
63688;SDS011;54895;40.928;14.480;2024-01-10T13:01:39;3.55;;;2.25;;
63688;SDS011;54895;40.928;14.480;2024-01-10T13:04:05;5.50;;;2.83;;
63688;SDS011;54895;40.928;14.480;2024-01-10T13:06:32;4.32;;;2.50;;
63688;SDS011;54895;40.928;14.480;2024-01-10T13:08:58;4.53;;;2.60;;
63688;SDS011;54895;40.928;14.480;2024-01-10T13:11:24;3.78;;;2.28;;
63688;SDS011;54895;40.928;14.480;2024-01-10T13:13:51;4.43;;;2.22;;
63688;SDS011;54895;40.928;14.480;2024-01-10T13:16:17;4.05;;;2.47;;
63688;SDS011;54895;40.928;14.480;2024-01-10T13:18:43;5.35;;;2.30;;
63688;SDS011;54895;40.928;14.480;2024-01-10T13:21:10;7.88;;;4.85;;
63688;SDS011;54895;40.928;14.480;2024-01-10T13:23:36;6.72;;;2.75;;
63688;SDS011;54895;40.928;14.480;2024-01-10T13:26:02;6.63;;;3.35;;
63688;SDS011;54895;40.928;14.480;2024-01-10T13:28:29;6.15;;;2.78;;
63688;SDS011;54895;40.928;14.480;2024-01-10T13:30:56;4.85;;;2.00;;
63688;SDS011;54895;40.928;14.480;2024-01-10T13:33:22;1.92;;;1.48;;
63688;SDS011;54895;40.928;14.480;2024-01-10T13:35:49;6.85;;;3.72;;
63688;SDS011;54895;40.928;14.480;2024-01-10T13:38:15;6.07;;;3.25;;
63688;SDS011;54895;40.928;14.480;2024-01-10T13:40:42;5.35;;;2.15;;
63688;SDS011;54895;40.928;14.480;2024-01-10T13:43:08;4.93;;;2.70;;
63688;SDS011;54895;40.928;14.480;2024-01-10T13:45:35;5.53;;;2.80;;
63688;SDS011;54895;40.928;14.480;2024-01-10T13:51:47;4.35;;;2.20;;
63688;SDS011;54895;40.928;14.480;2024-01-10T13:54:14;3.75;;;2.40;;
63688;SDS011;54895;40.928;14.480;2024-01-10T13:56:40;5.15;;;3.28;;
63688;SDS011;54895;40.928;14.480;2024-01-10T13:59:07;8.00;;;2.90;;
63688;SDS011;54895;40.928;14.480;2024-01-10T14:01:33;5.35;;;3.13;;
63688;SDS011;54895;40.928;14.480;2024-01-10T14:04:00;5.13;;;2.17;;
63688;SDS011;54895;40.928;14.480;2024-01-10T14:06:26;5.85;;;2.83;;
63688;SDS011;54895;40.928;14.480;2024-01-10T14:08:53;5.18;;;2.83;;
63688;SDS011;54895;40.928;14.480;2024-01-10T14:11:19;4.05;;;2.30;;
63688;SDS011;54895;40.928;14.480;2024-01-10T14:13:46;5.63;;;3.20;;
63688;SDS011;54895;40.928;14.480;2024-01-10T14:16:12;4.25;;;2.20;;
63688;SDS011;54895;40.928;14.480;2024-01-10T14:18:39;3.63;;;1.98;;
63688;SDS011;54895;40.928;14.480;2024-01-10T14:21:05;5.47;;;2.92;;
63688;SDS011;54895;40.928;14.480;2024-01-10T14:23:31;6.85;;;3.20;;
63688;SDS011;54895;40.928;14.480;2024-01-10T14:25:59;2.25;;;2.05;;
63688;SDS011;54895;40.928;14.480;2024-01-10T14:28:26;5.53;;;2.35;;
63688;SDS011;54895;40.928;14.480;2024-01-10T14:30:52;6.70;;;3.45;;
63688;SDS011;54895;40.928;14.480;2024-01-10T14:33:18;4.15;;;1.92;;
63688;SDS011;54895;40.928;14.480;2024-01-10T14:35:45;5.60;;;3.45;;
63688;SDS011;54895;40.928;14.480;2024-01-10T14:38:11;4.60;;;2.97;;
63688;SDS011;54895;40.928;14.480;2024-01-10T14:40:38;6.80;;;3.40;;
63688;SDS011;54895;40.928;14.480;2024-01-10T14:43:04;5.43;;;3.45;;
63688;SDS011;54895;40.928;14.480;2024-01-10T14:45:31;6.03;;;3.05;;
63688;SDS011;54895;40.928;14.480;2024-01-10T14:51:49;6.68;;;4.10;;
63688;SDS011;54895;40.928;14.480;2024-01-10T14:54:18;5.03;;;3.58;;
63688;SDS011;54895;40.928;14.480;2024-01-10T14:56:45;7.75;;;4.50;;
63688;SDS011;54895;40.928;14.480;2024-01-10T14:59:15;8.45;;;3.63;;
63688;SDS011;54895;40.928;14.480;2024-01-10T15:01:47;10.85;;;4.32;;
63688;SDS011;54895;40.928;14.480;2024-01-10T15:04:14;9.15;;;4.13;;
63688;SDS011;54895;40.928;14.480;2024-01-10T15:06:43;7.82;;;3.50;;
63688;SDS011;54895;40.928;14.480;2024-01-10T15:09:13;5.15;;;3.50;;
63688;SDS011;54895;40.928;14.480;2024-01-10T15:11:40;6.13;;;4.13;;
63688;SDS011;54895;40.928;14.480;2024-01-10T15:14:07;8.27;;;4.65;;
63688;SDS011;54895;40.928;14.480;2024-01-10T15:16:34;8.13;;;4.10;;
63688;SDS011;54895;40.928;14.480;2024-01-10T15:19:01;4.90;;;2.45;;
63688;SDS011;54895;40.928;14.480;2024-01-10T15:21:27;9.07;;;3.50;;
63688;SDS011;54895;40.928;14.480;2024-01-10T15:23:55;4.95;;;3.22;;
63688;SDS011;54895;40.928;14.480;2024-01-10T15:26:21;5.18;;;3.40;;
63688;SDS011;54895;40.928;14.480;2024-01-10T15:28:49;5.03;;;3.45;;
63688;SDS011;54895;40.928;14.480;2024-01-10T15:31:17;5.82;;;4.00;;
63688;SDS011;54895;40.928;14.480;2024-01-10T15:33:43;6.80;;;4.20;;
63688;SDS011;54895;40.928;14.480;2024-01-10T15:36:10;6.32;;;3.80;;
63688;SDS011;54895;40.928;14.480;2024-01-10T15:38:36;8.63;;;4.57;;
63688;SDS011;54895;40.928;14.480;2024-01-10T15:41:08;9.45;;;5.10;;
63688;SDS011;54895;40.928;14.480;2024-01-10T15:43:35;8.32;;;4.15;;